KHB9203 UHHH-LLBG
Flight info
| Callsign | KHB9203 |
|---|---|
| Flight time | N/A |
| Altitude | 32000 |
| Route | IVADA A946 TORMA N992 GU G363 UNGER/K0869F320 G363 BRT B151 KOTIB W174 TISBU W176 ROVNO B151 LAPAK/K0859F340 B151 KESED B926 ODIDA B808 DAKIN N55 ATNON/K0854F360 N55 OGANU P574 AGNIM/K0857F380 P574 NOGBU N37 IPLED A921 KUFAN/N0465F380 DCT REBLO UB111 EKPOS/N0466F400 UB111 KAR UT309 NIVLA UW27 VIRAN UT309 ERZ UW701 GAZ/N0461F390 UB36 TUSYR/N0464F400 B544 ALE W6 BAN R785 NIKAS DCT MERVA H14 PIDET |
| Aircraft | IL62/H-SDFGHIM1RTUWXY/LB1 |
Departure
| Time | 2026-04-21 06:49 |
|---|---|
| Airport | Khabarovsk Novy Airport (UHHH) |
Arrival
| Time | N/A |
|---|---|
| Airport | Ben Gurion International Airport (LLBG) |
| Time | Latitude | Longitude | Altitude | Speed | Heading |
|---|---|---|---|---|---|
| 2026-04-21 06:12 | 48.52511 | 135.17172 | 257 ft | 0 kts | 311° |
| 2026-04-21 06:36 | 48.52507 | 135.17178 | 257 ft | 3 kts | 311° |
| 2026-04-21 06:36 | 48.52493 | 135.17202 | 257 ft | 3 kts | 311° |
| 2026-04-21 06:37 | 48.52480 | 135.17225 | 257 ft | 3 kts | 323° |
| 2026-04-21 06:37 | 48.52460 | 135.17232 | 257 ft | 3 kts | 17° |
| 2026-04-21 06:37 | 48.52446 | 135.17211 | 257 ft | 3 kts | 62° |
| 2026-04-21 06:37 | 48.52438 | 135.17193 | 257 ft | 0 kts | 46° |
| 2026-04-21 06:39 | 48.52438 | 135.17194 | 257 ft | 0 kts | 46° |
| 2026-04-21 06:40 | 48.52439 | 135.17196 | 257 ft | 1 kts | 46° |
| 2026-04-21 06:40 | 48.52448 | 135.17209 | 257 ft | 3 kts | 48° |
| 2026-04-21 06:40 | 48.52462 | 135.17234 | 257 ft | 0 kts | 48° |
| 2026-04-21 06:41 | 48.52463 | 135.17236 | 257 ft | 1 kts | 48° |
| 2026-04-21 06:41 | 48.52477 | 135.17259 | 257 ft | 5 kts | 45° |
| 2026-04-21 06:41 | 48.52506 | 135.17300 | 257 ft | 6 kts | 45° |
| 2026-04-21 06:41 | 48.52525 | 135.17350 | 257 ft | 5 kts | 79° |
| 2026-04-21 06:42 | 48.52516 | 135.17396 | 257 ft | 4 kts | 125° |
| 2026-04-21 06:42 | 48.52497 | 135.17430 | 257 ft | 4 kts | 132° |
| 2026-04-21 06:42 | 48.52479 | 135.17461 | 257 ft | 4 kts | 132° |
| 2026-04-21 06:42 | 48.52462 | 135.17489 | 257 ft | 4 kts | 131° |
| 2026-04-21 06:43 | 48.52446 | 135.17515 | 257 ft | 3 kts | 132° |
| 2026-04-21 06:43 | 48.52432 | 135.17540 | 257 ft | 3 kts | 131° |
| 2026-04-21 06:43 | 48.52413 | 135.17573 | 257 ft | 5 kts | 131° |
| 2026-04-21 06:43 | 48.52385 | 135.17620 | 257 ft | 7 kts | 131° |
| 2026-04-21 06:44 | 48.52362 | 135.17659 | 257 ft | 8 kts | 131° |
| 2026-04-21 06:44 | 48.52322 | 135.17728 | 257 ft | 9 kts | 131° |
| 2026-04-21 06:44 | 48.52269 | 135.17792 | 257 ft | 10 kts | 169° |
| 2026-04-21 06:44 | 48.52205 | 135.17749 | 257 ft | 11 kts | 223° |
| 2026-04-21 06:45 | 48.52131 | 135.17644 | 257 ft | 11 kts | 222° |
| 2026-04-21 06:45 | 48.52070 | 135.17561 | 257 ft | 12 kts | 222° |
| 2026-04-21 06:45 | 48.52006 | 135.17473 | 257 ft | 13 kts | 222° |
| 2026-04-21 06:45 | 48.51938 | 135.17382 | 257 ft | 13 kts | 221° |
| 2026-04-21 06:46 | 48.51890 | 135.17318 | 257 ft | 14 kts | 221° |
| 2026-04-21 06:46 | 48.51817 | 135.17220 | 257 ft | 14 kts | 222° |
| 2026-04-21 06:46 | 48.51746 | 135.17122 | 257 ft | 13 kts | 222° |
| 2026-04-21 06:46 | 48.51681 | 135.17034 | 257 ft | 11 kts | 217° |
| 2026-04-21 06:47 | 48.51609 | 135.17040 | 257 ft | 11 kts | 135° |
| 2026-04-21 06:47 | 48.51552 | 135.17134 | 257 ft | 13 kts | 132° |
| 2026-04-21 06:47 | 48.51495 | 135.17242 | 257 ft | 13 kts | 112° |
| 2026-04-21 06:47 | 48.51513 | 135.17338 | 257 ft | 4 kts | 43° |
| 2026-04-21 06:48 | 48.51526 | 135.17356 | 257 ft | 0 kts | 43° |
| 2026-04-21 06:48 | 48.51623 | 135.17488 | 257 ft | 42 kts | 41° |
| 2026-04-21 06:49 | 48.51974 | 135.17962 | 258 ft | 93 kts | 42° |
| 2026-04-21 06:49 | 48.52585 | 135.18789 | 258 ft | 142 kts | 41° |
| 2026-04-21 06:49 | 48.53430 | 135.19950 | 328 ft | 179 kts | 39° |
| 2026-04-21 06:49 | 48.54354 | 135.21189 | 967 ft | 177 kts | 38° |
| 2026-04-21 06:50 | 48.55269 | 135.22446 | 1590 ft | 180 kts | 39° |
| 2026-04-21 06:50 | 48.56238 | 135.23786 | 1999 ft | 201 kts | 40° |
| 2026-04-21 06:50 | 48.57314 | 135.25303 | 2632 ft | 218 kts | 41° |
| 2026-04-21 06:50 | 48.58418 | 135.26891 | 3495 ft | 227 kts | 42° |
| 2026-04-21 06:51 | 48.59573 | 135.28570 | 4241 ft | 235 kts | 42° |
| 2026-04-21 06:51 | 48.60786 | 135.30341 | 4776 ft | 250 kts | 43° |
| 2026-04-21 06:51 | 48.62127 | 135.32111 | 5419 ft | 260 kts | 31° |
| 2026-04-21 06:51 | 48.63799 | 135.33139 | 6183 ft | 261 kts | 9° |
| 2026-04-21 06:52 | 48.65605 | 135.33188 | 7018 ft | 260 kts | 348° |
| 2026-04-21 06:52 | 48.67292 | 135.32266 | 7805 ft | 259 kts | 327° |
| 2026-04-21 06:52 | 48.68649 | 135.30495 | 8581 ft | 259 kts | 308° |
| 2026-04-21 06:52 | 48.69729 | 135.28304 | 9397 ft | 260 kts | 304° |
| 2026-04-21 06:53 | 48.70783 | 135.26054 | 10081 ft | 268 kts | 303° |
| 2026-04-21 06:53 | 48.71909 | 135.23656 | 10353 ft | 292 kts | 304° |
| 2026-04-21 06:53 | 48.73145 | 135.21074 | 10679 ft | 313 kts | 304° |
| 2026-04-21 06:53 | 48.74481 | 135.18290 | 10932 ft | 340 kts | 304° |
| 2026-04-21 06:54 | 48.75903 | 135.15310 | 11589 ft | 351 kts | 304° |
| 2026-04-21 06:54 | 48.77324 | 135.12336 | 12766 ft | 349 kts | 304° |
| 2026-04-21 06:54 | 48.78757 | 135.09323 | 13546 ft | 357 kts | 304° |
| 2026-04-21 06:54 | 48.80236 | 135.06216 | 14208 ft | 368 kts | 304° |
| 2026-04-21 06:55 | 48.81764 | 135.03032 | 14848 ft | 378 kts | 304° |
| 2026-04-21 06:55 | 48.83324 | 134.99767 | 15546 ft | 386 kts | 304° |
| 2026-04-21 06:55 | 48.84919 | 134.96431 | 16226 ft | 395 kts | 304° |
| 2026-04-21 06:55 | 48.86554 | 134.93028 | 16881 ft | 403 kts | 304° |
| 2026-04-21 06:56 | 48.88221 | 134.89545 | 17551 ft | 411 kts | 304° |
| 2026-04-21 06:56 | 48.89913 | 134.85994 | 18184 ft | 419 kts | 304° |
| 2026-04-21 06:56 | 48.91627 | 134.82372 | 18832 ft | 426 kts | 304° |
| 2026-04-21 06:56 | 48.93379 | 134.78678 | 19530 ft | 431 kts | 304° |
| 2026-04-21 06:57 | 48.95124 | 134.74998 | 20195 ft | 437 kts | 303° |
| 2026-04-21 06:57 | 48.96903 | 134.71222 | 20844 ft | 442 kts | 303° |
| 2026-04-21 06:57 | 48.98713 | 134.67385 | 21484 ft | 448 kts | 304° |
| 2026-04-21 06:57 | 49.00538 | 134.63514 | 22114 ft | 453 kts | 303° |
| 2026-04-21 06:58 | 49.02386 | 134.59581 | 22713 ft | 459 kts | 303° |
| 2026-04-21 06:58 | 49.04257 | 134.55601 | 23301 ft | 464 kts | 303° |
| 2026-04-21 06:58 | 49.06146 | 134.51567 | 23883 ft | 469 kts | 303° |
| 2026-04-21 06:58 | 49.08055 | 134.47488 | 24449 ft | 474 kts | 303° |
| 2026-04-21 06:59 | 49.09910 | 134.43295 | 25003 ft | 478 kts | 301° |
| 2026-04-21 06:59 | 49.11739 | 134.39038 | 25546 ft | 482 kts | 300° |
| 2026-04-21 06:59 | 49.13580 | 134.34734 | 26064 ft | 486 kts | 300° |
| 2026-04-21 06:59 | 49.15445 | 134.30396 | 26549 ft | 490 kts | 300° |
| 2026-04-21 07:00 | 49.17300 | 134.26086 | 27016 ft | 493 kts | 300° |
| 2026-04-21 07:00 | 49.19185 | 134.21687 | 27462 ft | 497 kts | 300° |
| 2026-04-21 07:00 | 49.21085 | 134.17248 | 27882 ft | 500 kts | 300° |
| 2026-04-21 07:00 | 49.22995 | 134.12775 | 28280 ft | 504 kts | 300° |
| 2026-04-21 07:01 | 49.24921 | 134.08268 | 28673 ft | 507 kts | 300° |
| 2026-04-21 07:01 | 49.26852 | 134.03740 | 29089 ft | 509 kts | 299° |
| 2026-04-21 07:01 | 49.30717 | 133.94675 | 30142 ft | 506 kts | 300° |
| 2026-04-21 07:02 | 49.32644 | 133.90176 | 30718 ft | 502 kts | 299° |
| 2026-04-21 07:02 | 49.34543 | 133.85708 | 31282 ft | 498 kts | 299° |
| 2026-04-21 07:02 | 49.36419 | 133.81271 | 31831 ft | 494 kts | 299° |
| 2026-04-21 07:02 | 49.38285 | 133.76859 | 32367 ft | 490 kts | 299° |
| 2026-04-21 07:03 | 49.40128 | 133.72485 | 32898 ft | 486 kts | 299° |
| 2026-04-21 07:03 | 49.41954 | 133.68141 | 33398 ft | 482 kts | 298° |
| 2026-04-21 07:03 | 49.43770 | 133.63828 | 33882 ft | 478 kts | 299° |
| 2026-04-21 07:03 | 49.45561 | 133.59552 | 34336 ft | 474 kts | 299° |
| 2026-04-21 07:04 | 49.47347 | 133.55305 | 34695 ft | 472 kts | 299° |
| 2026-04-21 07:04 | 49.49136 | 133.51060 | 34978 ft | 472 kts | 299° |
| 2026-04-21 07:04 | 49.50918 | 133.46808 | 35230 ft | 473 kts | 300° |
| 2026-04-21 07:04 | 49.52699 | 133.42546 | 35407 ft | 474 kts | 301° |
| 2026-04-21 07:05 | 49.56269 | 133.34006 | 35451 ft | 474 kts | 299° |
| 2026-04-21 07:05 | 49.59792 | 133.25542 | 35431 ft | 471 kts | 300° |
| 2026-04-21 07:06 | 49.63312 | 133.17033 | 35431 ft | 471 kts | 301° |
| 2026-04-21 07:06 | 49.66840 | 133.08503 | 35429 ft | 470 kts | 299° |
| 2026-04-21 07:07 | 49.70336 | 132.99981 | 35432 ft | 470 kts | 299° |
| 2026-04-21 07:07 | 49.73849 | 132.91493 | 35436 ft | 469 kts | 300° |
| 2026-04-21 07:08 | 49.77353 | 132.82937 | 35439 ft | 469 kts | 300° |
| 2026-04-21 07:08 | 49.80835 | 132.74400 | 35443 ft | 469 kts | 299° |
| 2026-04-21 07:09 | 49.84313 | 132.65859 | 35447 ft | 469 kts | 300° |
| 2026-04-21 07:09 | 49.87759 | 132.57350 | 35451 ft | 469 kts | 300° |
| 2026-04-21 07:10 | 49.91219 | 132.48783 | 35455 ft | 469 kts | 300° |
| 2026-04-21 07:10 | 49.94671 | 132.40202 | 35458 ft | 468 kts | 300° |
| 2026-04-21 07:11 | 49.98123 | 132.31602 | 35463 ft | 469 kts | 300° |
| 2026-04-21 07:11 | 50.01675 | 132.23110 | 35468 ft | 469 kts | 304° |
| 2026-04-21 07:12 | 50.05803 | 132.15217 | 35469 ft | 470 kts | 309° |
| 2026-04-21 07:12 | 50.10216 | 132.07683 | 35473 ft | 471 kts | 311° |
| 2026-04-21 07:13 | 50.14699 | 132.00322 | 35477 ft | 471 kts | 312° |
| 2026-04-21 07:13 | 50.19240 | 131.92910 | 35481 ft | 472 kts | 312° |
| 2026-04-21 07:14 | 50.23788 | 131.85503 | 35485 ft | 472 kts | 312° |
| 2026-04-21 07:14 | 50.28337 | 131.78066 | 35489 ft | 472 kts | 312° |
| 2026-04-21 07:15 | 50.32863 | 131.70639 | 35492 ft | 472 kts | 312° |
| 2026-04-21 07:15 | 50.37395 | 131.63195 | 35496 ft | 473 kts | 312° |
| 2026-04-21 07:16 | 50.41927 | 131.55732 | 35500 ft | 473 kts | 312° |
| 2026-04-21 07:16 | 50.46453 | 131.48254 | 35502 ft | 472 kts | 312° |
| 2026-04-21 07:17 | 50.50972 | 131.40760 | 35505 ft | 472 kts | 312° |
| 2026-04-21 07:17 | 50.55490 | 131.33248 | 35512 ft | 472 kts | 311° |
| 2026-04-21 07:18 | 50.59977 | 131.25772 | 35516 ft | 473 kts | 311° |
| 2026-04-21 07:18 | 50.64482 | 131.18237 | 35519 ft | 473 kts | 311° |
| 2026-04-21 07:19 | 50.68986 | 131.10678 | 35522 ft | 472 kts | 311° |
| 2026-04-21 07:19 | 50.73474 | 131.03126 | 35525 ft | 471 kts | 311° |
| 2026-04-21 07:20 | 50.77970 | 130.95568 | 35528 ft | 471 kts | 312° |
| 2026-04-21 07:20 | 50.82456 | 130.87995 | 35530 ft | 472 kts | 311° |
| 2026-04-21 07:21 | 50.86939 | 130.80403 | 35532 ft | 472 kts | 311° |
| 2026-04-21 07:21 | 50.91406 | 130.72791 | 35534 ft | 472 kts | 311° |
| 2026-04-21 07:22 | 50.95869 | 130.65161 | 35536 ft | 472 kts | 311° |
| 2026-04-21 07:22 | 51.00325 | 130.57527 | 35538 ft | 471 kts | 311° |
| 2026-04-21 07:23 | 51.04771 | 130.49880 | 35540 ft | 470 kts | 311° |
| 2026-04-21 07:23 | 51.09169 | 130.42284 | 35541 ft | 470 kts | 311° |
| 2026-04-21 07:24 | 51.13599 | 130.34616 | 35543 ft | 470 kts | 311° |
| 2026-04-21 07:24 | 51.18025 | 130.26938 | 35544 ft | 470 kts | 311° |
| 2026-04-21 07:25 | 51.22442 | 130.19247 | 35546 ft | 470 kts | 311° |
| 2026-04-21 07:25 | 51.26846 | 130.11546 | 35547 ft | 470 kts | 311° |
| 2026-04-21 07:26 | 51.31243 | 130.03802 | 35548 ft | 471 kts | 310° |
| 2026-04-21 07:26 | 51.35614 | 129.96003 | 35550 ft | 471 kts | 311° |
| 2026-04-21 07:27 | 51.39239 | 129.89511 | 35550 ft | 469 kts | 310° |
| 2026-04-21 07:27 | 51.43559 | 129.81674 | 35551 ft | 469 kts | 310° |
| 2026-04-21 07:28 | 51.47869 | 129.73827 | 35552 ft | 468 kts | 310° |
| 2026-04-21 07:28 | 51.52168 | 129.65976 | 35553 ft | 468 kts | 310° |
| 2026-04-21 07:29 | 51.56430 | 129.58155 | 35554 ft | 468 kts | 310° |
| 2026-04-21 07:29 | 51.60724 | 129.50243 | 35554 ft | 468 kts | 310° |
| 2026-04-21 07:30 | 51.65006 | 129.42339 | 35555 ft | 468 kts | 310° |
| 2026-04-21 07:30 | 51.69283 | 129.34414 | 35556 ft | 468 kts | 310° |
| 2026-04-21 07:31 | 51.73552 | 129.26480 | 35556 ft | 468 kts | 310° |
| 2026-04-21 07:31 | 51.77817 | 129.18527 | 35557 ft | 468 kts | 310° |
| 2026-04-21 07:32 | 51.82075 | 129.10562 | 35558 ft | 468 kts | 310° |
| 2026-04-21 07:32 | 51.86291 | 129.02644 | 35558 ft | 467 kts | 310° |
| 2026-04-21 07:33 | 51.90551 | 128.94675 | 35560 ft | 468 kts | 310° |
| 2026-04-21 07:33 | 51.94792 | 128.86699 | 35560 ft | 467 kts | 310° |
| 2026-04-21 07:34 | 51.99020 | 128.78703 | 35560 ft | 466 kts | 310° |
| 2026-04-21 07:34 | 52.03237 | 128.70687 | 35561 ft | 467 kts | 310° |
| 2026-04-21 07:35 | 52.07464 | 128.62631 | 35562 ft | 469 kts | 310° |
| 2026-04-21 07:35 | 52.11686 | 128.54559 | 35563 ft | 469 kts | 310° |
| 2026-04-21 07:36 | 52.15902 | 128.46469 | 35563 ft | 468 kts | 309° |
| 2026-04-21 07:36 | 52.20081 | 128.38427 | 35564 ft | 468 kts | 310° |
| 2026-04-21 07:37 | 52.24278 | 128.30318 | 35565 ft | 468 kts | 310° |
| 2026-04-21 07:37 | 52.28475 | 128.22186 | 35566 ft | 468 kts | 309° |
| 2026-04-21 07:38 | 52.32665 | 128.14046 | 35567 ft | 468 kts | 309° |
| 2026-04-21 07:38 | 52.36849 | 128.05878 | 35568 ft | 468 kts | 309° |
| 2026-04-21 07:39 | 52.41036 | 127.97697 | 35570 ft | 468 kts | 310° |
| 2026-04-21 07:39 | 52.45224 | 127.89544 | 35570 ft | 467 kts | 309° |
| 2026-04-21 07:40 | 52.49381 | 127.81361 | 35570 ft | 466 kts | 309° |
| 2026-04-21 07:40 | 52.53532 | 127.73174 | 35572 ft | 466 kts | 309° |
| 2026-04-21 07:41 | 52.57675 | 127.64971 | 35573 ft | 466 kts | 309° |
| 2026-04-21 07:41 | 52.61812 | 127.56749 | 35574 ft | 466 kts | 309° |
| 2026-04-21 07:42 | 52.65909 | 127.48548 | 35576 ft | 466 kts | 309° |
| 2026-04-21 07:42 | 52.70020 | 127.40284 | 35577 ft | 466 kts | 309° |
| 2026-04-21 07:43 | 52.74116 | 127.31993 | 35591 ft | 466 kts | 309° |
| 2026-04-21 07:43 | 52.78203 | 127.23685 | 35598 ft | 466 kts | 309° |
| 2026-04-21 07:44 | 52.82283 | 127.15361 | 35601 ft | 465 kts | 309° |
| 2026-04-21 07:44 | 52.86353 | 127.07049 | 35598 ft | 465 kts | 309° |
| 2026-04-21 07:45 | 52.90410 | 126.98715 | 35596 ft | 465 kts | 309° |
| 2026-04-21 07:45 | 52.94489 | 126.90406 | 35597 ft | 465 kts | 309° |
| 2026-04-21 07:46 | 52.98536 | 126.82046 | 35598 ft | 465 kts | 309° |
| 2026-04-21 07:46 | 53.02577 | 126.73681 | 35599 ft | 464 kts | 308° |
| 2026-04-21 07:47 | 53.06613 | 126.65292 | 35600 ft | 464 kts | 308° |
| 2026-04-21 07:47 | 53.10641 | 126.56892 | 35602 ft | 464 kts | 308° |
| 2026-04-21 07:48 | 53.14659 | 126.48478 | 35604 ft | 464 kts | 308° |
| 2026-04-21 07:48 | 53.18646 | 126.40102 | 35605 ft | 464 kts | 308° |
| 2026-04-21 07:49 | 53.22653 | 126.31656 | 35607 ft | 464 kts | 308° |
| 2026-04-21 07:49 | 53.26649 | 126.23206 | 35609 ft | 463 kts | 308° |
| 2026-04-21 07:50 | 53.30640 | 126.14739 | 35614 ft | 463 kts | 308° |
| 2026-04-21 07:50 | 53.34625 | 126.06260 | 35618 ft | 464 kts | 308° |
| 2026-04-21 07:51 | 53.38602 | 125.97770 | 35621 ft | 464 kts | 308° |
| 2026-04-21 07:51 | 53.42593 | 125.89297 | 35622 ft | 462 kts | 308° |
| 2026-04-21 07:52 | 53.46195 | 125.80380 | 35625 ft | 462 kts | 300° |
| 2026-04-21 07:52 | 53.49234 | 125.70888 | 35626 ft | 461 kts | 296° |
| 2026-04-21 07:53 | 53.52027 | 125.61179 | 35628 ft | 461 kts | 295° |
| 2026-04-21 07:53 | 53.54721 | 125.51473 | 35630 ft | 461 kts | 295° |
| 2026-04-21 07:54 | 53.57408 | 125.41667 | 35633 ft | 461 kts | 294° |
| 2026-04-21 07:54 | 53.60072 | 125.31844 | 35634 ft | 461 kts | 294° |
| 2026-04-21 07:55 | 53.62719 | 125.22013 | 35637 ft | 460 kts | 294° |
| 2026-04-21 07:55 | 53.65352 | 125.12178 | 35654 ft | 460 kts | 294° |
| 2026-04-21 07:56 | 53.67973 | 125.02341 | 35673 ft | 459 kts | 294° |
| 2026-04-21 07:56 | 53.70601 | 124.92503 | 35681 ft | 459 kts | 294° |
| 2026-04-21 07:57 | 53.73209 | 124.82664 | 35686 ft | 459 kts | 294° |
| 2026-04-21 07:57 | 53.75803 | 124.72817 | 35690 ft | 458 kts | 294° |
| 2026-04-21 07:58 | 53.78382 | 124.62965 | 35694 ft | 458 kts | 294° |
| 2026-04-21 07:58 | 53.80948 | 124.53106 | 35696 ft | 457 kts | 294° |
| 2026-04-21 07:59 | 53.83488 | 124.43326 | 35700 ft | 457 kts | 294° |
| 2026-04-21 07:59 | 53.86030 | 124.33441 | 35703 ft | 457 kts | 294° |
| 2026-04-21 08:00 | 53.88571 | 124.23568 | 35706 ft | 457 kts | 294° |
| 2026-04-21 08:00 | 53.91103 | 124.13675 | 35709 ft | 456 kts | 294° |
| 2026-04-21 08:01 | 53.93622 | 124.03787 | 35712 ft | 456 kts | 293° |
| 2026-04-21 08:02 | 53.97408 | 123.88959 | 35717 ft | 456 kts | 293° |
| 2026-04-21 08:02 | 53.99907 | 123.79047 | 35720 ft | 456 kts | 293° |
| 2026-04-21 08:03 | 54.02385 | 123.69178 | 35723 ft | 456 kts | 293° |
| 2026-04-21 08:03 | 54.04866 | 123.59250 | 35726 ft | 456 kts | 293° |
| 2026-04-21 08:04 | 54.07343 | 123.49278 | 35730 ft | 457 kts | 293° |
| 2026-04-21 08:04 | 54.09810 | 123.39297 | 35733 ft | 457 kts | 293° |
| 2026-04-21 08:05 | 54.12272 | 123.29307 | 35736 ft | 457 kts | 293° |
| 2026-04-21 08:05 | 54.14725 | 123.19297 | 35739 ft | 457 kts | 293° |
| 2026-04-21 08:06 | 54.17165 | 123.09293 | 35742 ft | 457 kts | 293° |
| 2026-04-21 08:06 | 54.19601 | 122.99247 | 35745 ft | 457 kts | 293° |
| 2026-04-21 08:07 | 54.22064 | 122.89200 | 35749 ft | 457 kts | 293° |
| 2026-04-21 08:07 | 54.24477 | 122.79171 | 35751 ft | 456 kts | 293° |
| 2026-04-21 08:08 | 54.26883 | 122.69140 | 35754 ft | 455 kts | 292° |
| 2026-04-21 08:08 | 54.29275 | 122.59113 | 35757 ft | 455 kts | 292° |
| 2026-04-21 08:09 | 54.31657 | 122.49078 | 35760 ft | 455 kts | 292° |
| 2026-04-21 08:09 | 54.34014 | 122.39096 | 35763 ft | 454 kts | 292° |
| 2026-04-21 08:10 | 54.36375 | 122.29049 | 35767 ft | 454 kts | 292° |
| 2026-04-21 08:10 | 54.38727 | 122.18988 | 35769 ft | 454 kts | 292° |
| 2026-04-21 08:11 | 54.40934 | 122.08842 | 35772 ft | 454 kts | 290° |
| 2026-04-21 08:11 | 54.42619 | 122.00314 | 35776 ft | 454 kts | 289° |
| 2026-04-21 08:12 | 54.44604 | 121.90024 | 35779 ft | 454 kts | 289° |
| 2026-04-21 08:12 | 54.46546 | 121.79714 | 35783 ft | 454 kts | 288° |
| 2026-04-21 08:13 | 54.48469 | 121.69374 | 35786 ft | 454 kts | 288° |
| 2026-04-21 08:13 | 54.50377 | 121.59006 | 35788 ft | 454 kts | 288° |
| 2026-04-21 08:14 | 54.52276 | 121.48610 | 35791 ft | 454 kts | 288° |
| 2026-04-21 08:14 | 54.54162 | 121.38215 | 35794 ft | 455 kts | 288° |
| 2026-04-21 08:15 | 54.56038 | 121.27807 | 35797 ft | 455 kts | 288° |
| 2026-04-21 08:15 | 54.57893 | 121.17447 | 35799 ft | 455 kts | 288° |
| 2026-04-21 08:16 | 54.59753 | 121.07001 | 35801 ft | 455 kts | 288° |
| 2026-04-21 08:16 | 54.61609 | 120.96565 | 35804 ft | 455 kts | 288° |
| 2026-04-21 08:17 | 54.63471 | 120.86117 | 35806 ft | 455 kts | 288° |
| 2026-04-21 08:17 | 54.65309 | 120.75638 | 35809 ft | 455 kts | 288° |
| 2026-04-21 08:18 | 54.67134 | 120.65170 | 35811 ft | 455 kts | 287° |
| 2026-04-21 08:18 | 54.68936 | 120.54760 | 35813 ft | 455 kts | 287° |
| 2026-04-21 08:19 | 54.70742 | 120.44274 | 35815 ft | 455 kts | 287° |
| 2026-04-21 08:19 | 54.72535 | 120.33791 | 35818 ft | 454 kts | 287° |
| 2026-04-21 08:20 | 54.74331 | 120.23232 | 35820 ft | 454 kts | 287° |
| 2026-04-21 08:20 | 54.76096 | 120.12776 | 35822 ft | 454 kts | 287° |
| 2026-04-21 08:21 | 54.77858 | 120.02275 | 35824 ft | 454 kts | 287° |
| 2026-04-21 08:21 | 54.79635 | 119.91768 | 35827 ft | 454 kts | 287° |
| 2026-04-21 08:22 | 54.81389 | 119.81247 | 35828 ft | 453 kts | 287° |
| 2026-04-21 08:22 | 54.83125 | 119.70740 | 35830 ft | 453 kts | 287° |
| 2026-04-21 08:23 | 54.84854 | 119.60218 | 35832 ft | 453 kts | 287° |
| 2026-04-21 08:23 | 54.86570 | 119.49690 | 35834 ft | 453 kts | 287° |
| 2026-04-21 08:24 | 54.88264 | 119.39218 | 35836 ft | 453 kts | 287° |
| 2026-04-21 08:24 | 54.89960 | 119.28636 | 35838 ft | 453 kts | 286° |
| 2026-04-21 08:25 | 54.91665 | 119.18088 | 35839 ft | 453 kts | 286° |
| 2026-04-21 08:25 | 54.93346 | 119.07546 | 35841 ft | 453 kts | 286° |
| 2026-04-21 08:26 | 54.95027 | 118.96975 | 35843 ft | 453 kts | 286° |
| 2026-04-21 08:26 | 54.96715 | 118.86434 | 35844 ft | 453 kts | 286° |
| 2026-04-21 08:27 | 54.98367 | 118.75910 | 35846 ft | 453 kts | 286° |
| 2026-04-21 08:27 | 55.00021 | 118.65309 | 35847 ft | 453 kts | 285° |
| 2026-04-21 08:28 | 55.01658 | 118.54735 | 35849 ft | 453 kts | 285° |
| 2026-04-21 08:28 | 55.03294 | 118.44099 | 35850 ft | 453 kts | 285° |
| 2026-04-21 08:29 | 55.04915 | 118.33479 | 35852 ft | 453 kts | 285° |
| 2026-04-21 08:29 | 55.06529 | 118.22851 | 35853 ft | 452 kts | 285° |
| 2026-04-21 08:30 | 55.08127 | 118.12228 | 35855 ft | 453 kts | 285° |
| 2026-04-21 08:30 | 55.09702 | 118.01560 | 35856 ft | 453 kts | 285° |
| 2026-04-21 08:31 | 55.11283 | 117.90888 | 35857 ft | 453 kts | 285° |
| 2026-04-21 08:31 | 55.12825 | 117.80264 | 35858 ft | 453 kts | 285° |
| 2026-04-21 08:32 | 55.14365 | 117.69560 | 35860 ft | 453 kts | 284° |
| 2026-04-21 08:32 | 55.15894 | 117.58845 | 35861 ft | 453 kts | 284° |
| 2026-04-21 08:33 | 55.17446 | 117.48155 | 35862 ft | 453 kts | 284° |
| 2026-04-21 08:33 | 55.18981 | 117.37470 | 35863 ft | 453 kts | 284° |
| 2026-04-21 08:34 | 55.20501 | 117.26839 | 35864 ft | 453 kts | 284° |
| 2026-04-21 08:34 | 55.22023 | 117.16144 | 35865 ft | 453 kts | 284° |
| 2026-04-21 08:35 | 55.23527 | 117.05429 | 35866 ft | 453 kts | 284° |
| 2026-04-21 08:35 | 55.25051 | 116.94710 | 35867 ft | 453 kts | 284° |
| 2026-04-21 08:36 | 55.26562 | 116.83976 | 35869 ft | 453 kts | 284° |
| 2026-04-21 08:36 | 55.28061 | 116.73201 | 35869 ft | 454 kts | 284° |
| 2026-04-21 08:37 | 55.29533 | 116.62511 | 35870 ft | 454 kts | 283° |
| 2026-04-21 08:37 | 55.31009 | 116.51738 | 35871 ft | 453 kts | 283° |
| 2026-04-21 08:38 | 55.32475 | 116.40907 | 35872 ft | 453 kts | 283° |
| 2026-04-21 08:38 | 55.33924 | 116.30102 | 35873 ft | 454 kts | 283° |
| 2026-04-21 08:39 | 55.35349 | 116.19350 | 35874 ft | 454 kts | 283° |
| 2026-04-21 08:39 | 55.36771 | 116.08548 | 35874 ft | 455 kts | 283° |
| 2026-04-21 08:40 | 55.38193 | 115.97677 | 35876 ft | 455 kts | 283° |
| 2026-04-21 08:40 | 55.39614 | 115.86846 | 35876 ft | 454 kts | 282° |
| 2026-04-21 08:41 | 55.41013 | 115.76008 | 35876 ft | 454 kts | 282° |
| 2026-04-21 08:41 | 55.42398 | 115.65168 | 35877 ft | 454 kts | 282° |
| 2026-04-21 08:42 | 55.43774 | 115.54323 | 35877 ft | 454 kts | 282° |
| 2026-04-21 08:42 | 55.45138 | 115.43469 | 35878 ft | 454 kts | 282° |
| 2026-04-21 08:43 | 55.46490 | 115.32590 | 35879 ft | 454 kts | 282° |
| 2026-04-21 08:43 | 55.47836 | 115.21720 | 35879 ft | 454 kts | 282° |
| 2026-04-21 08:44 | 55.49167 | 115.10858 | 35880 ft | 453 kts | 282° |
| 2026-04-21 08:44 | 55.50486 | 115.00000 | 35880 ft | 453 kts | 282° |
| 2026-04-21 08:45 | 55.51825 | 114.89130 | 35881 ft | 453 kts | 282° |
| 2026-04-21 08:45 | 55.53130 | 114.78233 | 35881 ft | 454 kts | 281° |
| 2026-04-21 08:46 | 55.54430 | 114.67318 | 35882 ft | 454 kts | 281° |
| 2026-04-21 08:46 | 55.55719 | 114.56403 | 35882 ft | 454 kts | 281° |
| 2026-04-21 08:47 | 55.56997 | 114.45445 | 35882 ft | 455 kts | 281° |
| 2026-04-21 08:47 | 55.58262 | 114.34554 | 35883 ft | 455 kts | 281° |
| 2026-04-21 08:48 | 55.59522 | 114.23592 | 35883 ft | 455 kts | 281° |
| 2026-04-21 08:48 | 55.60774 | 114.12599 | 35883 ft | 455 kts | 281° |
| 2026-04-21 08:49 | 55.62016 | 114.01597 | 35884 ft | 456 kts | 281° |
| 2026-04-21 08:49 | 55.63067 | 113.92392 | 35883 ft | 456 kts | 281° |
| 2026-04-21 08:50 | 55.64288 | 113.81449 | 35882 ft | 456 kts | 280° |
| 2026-04-21 08:50 | 55.65510 | 113.70443 | 35882 ft | 455 kts | 280° |
| 2026-04-21 08:51 | 55.66712 | 113.59429 | 35882 ft | 455 kts | 280° |
| 2026-04-21 08:51 | 55.67908 | 113.48418 | 35883 ft | 454 kts | 280° |
| 2026-04-21 08:52 | 55.69089 | 113.37418 | 35883 ft | 454 kts | 280° |
| 2026-04-21 08:52 | 55.70261 | 113.26405 | 35889 ft | 453 kts | 280° |
| 2026-04-21 08:53 | 55.71421 | 113.15424 | 35928 ft | 453 kts | 280° |
| 2026-04-21 08:53 | 55.72568 | 113.04437 | 35945 ft | 453 kts | 280° |
| 2026-04-21 08:54 | 55.73708 | 112.93520 | 35950 ft | 452 kts | 280° |
| 2026-04-21 08:54 | 55.74841 | 112.82555 | 35953 ft | 451 kts | 279° |
| 2026-04-21 08:55 | 55.75963 | 112.71603 | 35954 ft | 451 kts | 279° |
| 2026-04-21 08:55 | 55.77065 | 112.60640 | 35955 ft | 451 kts | 279° |
| 2026-04-21 08:56 | 55.78171 | 112.49657 | 35955 ft | 451 kts | 278° |
| 2026-04-21 08:56 | 55.79247 | 112.38671 | 35956 ft | 451 kts | 279° |
| 2026-04-21 08:57 | 55.80314 | 112.27740 | 35959 ft | 451 kts | 279° |
| 2026-04-21 08:57 | 55.81381 | 112.16742 | 35962 ft | 452 kts | 277° |
| 2026-04-21 08:58 | 55.82439 | 112.05714 | 35962 ft | 452 kts | 280° |
| 2026-04-21 08:58 | 55.83505 | 111.94686 | 35966 ft | 452 kts | 279° |
| 2026-04-21 08:59 | 55.84563 | 111.83662 | 35966 ft | 452 kts | 278° |
| 2026-04-21 08:59 | 55.85591 | 111.72613 | 35968 ft | 452 kts | 278° |
| 2026-04-21 09:00 | 55.86616 | 111.61592 | 35967 ft | 451 kts | 278° |
| 2026-04-21 09:00 | 55.87628 | 111.50571 | 35971 ft | 450 kts | 279° |
| 2026-04-21 09:01 | 55.88616 | 111.39553 | 35968 ft | 450 kts | 279° |
| 2026-04-21 09:01 | 55.89594 | 111.28567 | 35970 ft | 449 kts | 278° |
| 2026-04-21 09:02 | 55.90550 | 111.17599 | 35971 ft | 448 kts | 278° |
| 2026-04-21 09:02 | 55.91504 | 111.06646 | 35971 ft | 446 kts | 278° |
| 2026-04-21 09:03 | 55.92921 | 110.90336 | 35972 ft | 445 kts | 278° |
| 2026-04-21 09:03 | 55.93842 | 110.79427 | 35973 ft | 444 kts | 278° |
| 2026-04-21 09:04 | 55.94761 | 110.68548 | 35973 ft | 443 kts | 278° |
| 2026-04-21 09:04 | 55.95673 | 110.57647 | 35974 ft | 443 kts | 278° |
| 2026-04-21 09:05 | 55.96570 | 110.46757 | 35975 ft | 443 kts | 278° |
| 2026-04-21 09:05 | 55.97457 | 110.35867 | 35976 ft | 443 kts | 278° |
| 2026-04-21 09:06 | 55.98331 | 110.24981 | 35976 ft | 443 kts | 278° |
| 2026-04-21 09:06 | 55.99199 | 110.14092 | 35977 ft | 443 kts | 277° |
| 2026-04-21 09:07 | 56.00058 | 110.03200 | 35977 ft | 443 kts | 277° |
| 2026-04-21 09:07 | 56.00902 | 109.92366 | 35978 ft | 443 kts | 277° |
| 2026-04-21 09:08 | 56.01755 | 109.81451 | 35979 ft | 443 kts | 277° |
| 2026-04-21 09:08 | 56.02594 | 109.70533 | 35979 ft | 443 kts | 277° |
| 2026-04-21 09:09 | 56.03418 | 109.59612 | 35980 ft | 443 kts | 277° |
| 2026-04-21 09:09 | 56.04234 | 109.48682 | 35980 ft | 443 kts | 277° |
| 2026-04-21 09:10 | 56.05038 | 109.37731 | 35982 ft | 444 kts | 277° |
| 2026-04-21 09:10 | 56.05837 | 109.26796 | 35982 ft | 443 kts | 277° |
| 2026-04-21 09:11 | 56.06621 | 109.15856 | 35983 ft | 443 kts | 277° |
| 2026-04-21 09:11 | 56.07395 | 109.04914 | 35983 ft | 443 kts | 277° |
| 2026-04-21 09:12 | 56.08173 | 108.93927 | 35984 ft | 442 kts | 277° |
| 2026-04-21 09:12 | 56.08922 | 108.83088 | 35984 ft | 441 kts | 277° |
| 2026-04-21 09:13 | 56.09674 | 108.72186 | 35984 ft | 440 kts | 277° |
| 2026-04-21 09:13 | 56.10410 | 108.61299 | 35985 ft | 440 kts | 277° |
| 2026-04-21 09:14 | 56.11132 | 108.50433 | 35986 ft | 439 kts | 277° |
| 2026-04-21 09:14 | 56.11844 | 108.39597 | 35986 ft | 437 kts | 277° |
| 2026-04-21 09:15 | 56.12540 | 108.28773 | 35986 ft | 437 kts | 277° |
| 2026-04-21 09:15 | 56.13230 | 108.17946 | 35987 ft | 436 kts | 277° |
| 2026-04-21 09:16 | 56.13910 | 108.07134 | 35988 ft | 436 kts | 277° |
| 2026-04-21 09:16 | 56.14578 | 107.96333 | 35988 ft | 435 kts | 277° |
| 2026-04-21 09:17 | 56.15246 | 107.85552 | 35988 ft | 435 kts | 276° |
| 2026-04-21 09:17 | 56.15898 | 107.74763 | 35989 ft | 435 kts | 276° |
| 2026-04-21 09:18 | 56.16532 | 107.64057 | 35989 ft | 435 kts | 276° |
| 2026-04-21 09:18 | 56.17161 | 107.53248 | 35990 ft | 435 kts | 276° |
| 2026-04-21 09:19 | 56.17786 | 107.42437 | 35991 ft | 436 kts | 276° |
| 2026-04-21 09:19 | 56.18397 | 107.31618 | 35999 ft | 435 kts | 276° |
| 2026-04-21 09:20 | 56.18998 | 107.20812 | 36002 ft | 435 kts | 276° |
| 2026-04-21 09:20 | 56.19589 | 107.10006 | 36004 ft | 435 kts | 276° |
| 2026-04-21 09:21 | 56.20183 | 106.99203 | 36004 ft | 434 kts | 276° |
| 2026-04-21 09:21 | 56.20771 | 106.88417 | 35996 ft | 433 kts | 276° |
| 2026-04-21 09:22 | 56.21332 | 106.77634 | 35993 ft | 432 kts | 276° |
| 2026-04-21 09:22 | 56.21895 | 106.66877 | 35992 ft | 431 kts | 276° |
| 2026-04-21 09:23 | 56.22439 | 106.56125 | 35992 ft | 430 kts | 276° |
| 2026-04-21 09:23 | 56.22970 | 106.45427 | 35993 ft | 429 kts | 276° |
| 2026-04-21 09:24 | 56.23493 | 106.34744 | 35992 ft | 428 kts | 276° |
| 2026-04-21 09:24 | 56.24003 | 106.24083 | 35992 ft | 427 kts | 276° |
| 2026-04-21 09:25 | 56.24497 | 106.13503 | 35992 ft | 427 kts | 276° |
| 2026-04-21 09:25 | 56.24992 | 106.02803 | 35992 ft | 427 kts | 276° |
| 2026-04-21 09:26 | 56.25479 | 105.92229 | 35993 ft | 427 kts | 276° |
| 2026-04-21 09:26 | 56.25949 | 105.81592 | 35993 ft | 426 kts | 276° |
| 2026-04-21 09:27 | 56.26416 | 105.70958 | 35993 ft | 426 kts | 276° |
| 2026-04-21 09:27 | 56.26870 | 105.60334 | 35993 ft | 426 kts | 276° |
| 2026-04-21 09:28 | 56.27236 | 105.51511 | 35993 ft | 426 kts | 276° |
| 2026-04-21 09:28 | 56.27675 | 105.40882 | 35993 ft | 426 kts | 276° |
| 2026-04-21 09:29 | 56.28175 | 105.28539 | 35994 ft | 425 kts | 276° |
| 2026-04-21 09:29 | 56.28594 | 105.17920 | 35994 ft | 425 kts | 276° |
| 2026-04-21 09:30 | 56.28939 | 105.09026 | 35994 ft | 425 kts | 276° |
| 2026-04-21 09:30 | 56.29340 | 104.98421 | 35994 ft | 424 kts | 276° |
| 2026-04-21 09:31 | 56.29734 | 104.87836 | 35994 ft | 423 kts | 276° |
| 2026-04-21 09:31 | 56.30117 | 104.77302 | 35999 ft | 417 kts | 276° |
| 2026-04-21 09:32 | 56.30482 | 104.67041 | 35993 ft | 406 kts | 276° |
| 2026-04-21 09:32 | 56.30833 | 104.56923 | 35994 ft | 403 kts | 276° |
| 2026-04-21 09:33 | 56.31169 | 104.46860 | 35994 ft | 402 kts | 276° |
| 2026-04-21 09:33 | 56.31500 | 104.36796 | 35995 ft | 401 kts | 276° |
| 2026-04-21 09:34 | 56.31820 | 104.26797 | 35994 ft | 399 kts | 276° |
| 2026-04-21 09:34 | 56.32117 | 104.16810 | 35993 ft | 399 kts | 276° |
| 2026-04-21 09:35 | 56.32417 | 104.06898 | 35992 ft | 399 kts | 276° |
| 2026-04-21 09:35 | 56.32702 | 103.96913 | 35993 ft | 398 kts | 276° |
| 2026-04-21 09:36 | 56.32976 | 103.86949 | 35993 ft | 398 kts | 276° |
| 2026-04-21 09:36 | 56.33242 | 103.77004 | 35993 ft | 397 kts | 276° |
| 2026-04-21 09:37 | 56.33498 | 103.67057 | 35994 ft | 397 kts | 276° |
| 2026-04-21 09:37 | 56.33746 | 103.57119 | 35994 ft | 397 kts | 276° |
| 2026-04-21 09:38 | 56.33986 | 103.47148 | 35995 ft | 398 kts | 276° |
| 2026-04-21 09:38 | 56.34237 | 103.37177 | 35995 ft | 398 kts | 275° |
| 2026-04-21 09:39 | 56.34478 | 103.27209 | 35996 ft | 398 kts | 276° |
| 2026-04-21 09:39 | 56.34707 | 103.17260 | 35996 ft | 397 kts | 275° |
| 2026-04-21 09:40 | 56.34932 | 103.07306 | 35996 ft | 397 kts | 275° |
| 2026-04-21 09:40 | 56.35144 | 102.97375 | 35996 ft | 396 kts | 275° |
| 2026-04-21 09:41 | 56.35353 | 102.87445 | 35997 ft | 395 kts | 275° |
| 2026-04-21 09:41 | 56.35554 | 102.77551 | 35980 ft | 394 kts | 275° |
| 2026-04-21 09:42 | 56.35744 | 102.67659 | 35973 ft | 393 kts | 275° |
| 2026-04-21 09:42 | 56.35918 | 102.57866 | 35970 ft | 392 kts | 275° |
| 2026-04-21 09:43 | 56.36096 | 102.48039 | 35970 ft | 391 kts | 275° |
| 2026-04-21 09:43 | 56.36259 | 102.38248 | 35970 ft | 390 kts | 275° |
| 2026-04-21 09:44 | 56.36418 | 102.28469 | 35968 ft | 389 kts | 275° |
| 2026-04-21 09:44 | 56.36570 | 102.18716 | 35969 ft | 388 kts | 275° |
| 2026-04-21 09:45 | 56.36705 | 102.09058 | 35970 ft | 387 kts | 275° |
| 2026-04-21 09:45 | 56.36837 | 101.99349 | 35969 ft | 387 kts | 276° |
| 2026-04-21 09:46 | 56.36961 | 101.89658 | 35971 ft | 386 kts | 276° |
| 2026-04-21 09:46 | 56.37070 | 101.79981 | 35968 ft | 386 kts | 275° |
| 2026-04-21 09:47 | 56.36864 | 101.70281 | 35969 ft | 388 kts | 269° |
| 2026-04-21 09:47 | 56.36126 | 101.60621 | 35969 ft | 389 kts | 267° |
| 2026-04-21 09:48 | 56.35168 | 101.50976 | 35969 ft | 392 kts | 264° |
| 2026-04-21 09:48 | 56.34114 | 101.41308 | 35969 ft | 393 kts | 264° |
| 2026-04-21 09:49 | 56.33046 | 101.31691 | 35970 ft | 393 kts | 264° |
| 2026-04-21 09:49 | 56.31955 | 101.22014 | 35969 ft | 394 kts | 263° |
| 2026-04-21 09:50 | 56.31217 | 101.15547 | 35970 ft | 394 kts | 263° |
| 2026-04-21 09:50 | 56.29735 | 101.02682 | 35970 ft | 393 kts | 263° |
| 2026-04-21 09:51 | 56.28603 | 100.93058 | 35970 ft | 393 kts | 263° |
| 2026-04-21 09:51 | 56.27485 | 100.83499 | 35970 ft | 392 kts | 263° |
| 2026-04-21 09:52 | 56.26348 | 100.73899 | 35970 ft | 391 kts | 263° |
| 2026-04-21 09:52 | 56.25209 | 100.64356 | 35970 ft | 389 kts | 263° |
| 2026-04-21 09:53 | 56.24067 | 100.54840 | 35970 ft | 388 kts | 263° |
| 2026-04-21 09:53 | 56.22916 | 100.45360 | 35970 ft | 387 kts | 263° |
| 2026-04-21 09:54 | 56.21776 | 100.35914 | 35970 ft | 386 kts | 263° |
| 2026-04-21 09:54 | 56.20625 | 100.26495 | 35971 ft | 385 kts | 263° |
| 2026-04-21 09:55 | 56.19467 | 100.17100 | 35971 ft | 385 kts | 263° |
| 2026-04-21 09:55 | 56.18315 | 100.07784 | 35971 ft | 384 kts | 263° |
| 2026-04-21 09:56 | 56.17135 | 99.98432 | 35971 ft | 384 kts | 263° |
| 2026-04-21 09:56 | 56.15968 | 99.89084 | 35971 ft | 383 kts | 263° |
| 2026-04-21 09:57 | 56.14788 | 99.79760 | 35971 ft | 383 kts | 263° |
| 2026-04-21 09:57 | 56.13601 | 99.70415 | 35972 ft | 384 kts | 263° |
| 2026-04-21 09:58 | 56.12407 | 99.61079 | 35972 ft | 384 kts | 263° |
| 2026-04-21 09:58 | 56.11204 | 99.51748 | 35973 ft | 384 kts | 263° |
| 2026-04-21 09:59 | 56.10004 | 99.42477 | 35973 ft | 384 kts | 263° |
| 2026-04-21 09:59 | 56.08945 | 99.33120 | 35975 ft | 383 kts | 266° |
| 2026-04-21 10:00 | 56.08343 | 99.23634 | 35974 ft | 382 kts | 270° |
| 2026-04-21 10:00 | 56.07948 | 99.14179 | 35974 ft | 380 kts | 270° |
| 2026-04-21 10:01 | 56.07588 | 99.04746 | 35974 ft | 379 kts | 270° |
| 2026-04-21 10:01 | 56.07247 | 98.95389 | 35975 ft | 378 kts | 270° |
| 2026-04-21 10:02 | 56.06735 | 98.81311 | 35976 ft | 377 kts | 271° |
| 2026-04-21 10:03 | 56.06396 | 98.71943 | 35977 ft | 376 kts | 270° |
| 2026-04-21 10:03 | 56.06058 | 98.62604 | 35977 ft | 375 kts | 270° |
| 2026-04-21 10:04 | 56.05711 | 98.53291 | 35978 ft | 375 kts | 270° |
| 2026-04-21 10:04 | 56.05358 | 98.43987 | 35978 ft | 374 kts | 270° |
| 2026-04-21 10:05 | 56.05004 | 98.34765 | 35978 ft | 373 kts | 270° |
| 2026-04-21 10:05 | 56.04639 | 98.25522 | 35980 ft | 372 kts | 270° |
| 2026-04-21 10:06 | 56.04268 | 98.16295 | 35980 ft | 371 kts | 270° |
| 2026-04-21 10:06 | 56.03889 | 98.07095 | 35980 ft | 371 kts | 270° |
| 2026-04-21 10:07 | 56.03485 | 97.97908 | 35981 ft | 370 kts | 270° |
| 2026-04-21 10:07 | 56.03083 | 97.88714 | 35982 ft | 371 kts | 270° |
| 2026-04-21 10:08 | 56.02673 | 97.79513 | 35982 ft | 371 kts | 270° |
| 2026-04-21 10:08 | 56.02252 | 97.70314 | 35983 ft | 371 kts | 270° |
| 2026-04-21 10:09 | 56.01829 | 97.61165 | 35984 ft | 372 kts | 270° |
| 2026-04-21 10:09 | 56.01395 | 97.51963 | 35985 ft | 372 kts | 270° |
| 2026-04-21 10:10 | 56.00955 | 97.42751 | 35985 ft | 372 kts | 270° |
| 2026-04-21 10:10 | 56.00579 | 97.35086 | 35986 ft | 372 kts | 270° |
| 2026-04-21 10:11 | 56.00127 | 97.25845 | 35987 ft | 373 kts | 269° |
| 2026-04-21 10:11 | 55.99672 | 97.16628 | 35987 ft | 372 kts | 270° |
| 2026-04-21 10:12 | 55.99207 | 97.07452 | 35986 ft | 370 kts | 269° |
| 2026-04-21 10:12 | 55.98733 | 96.98285 | 35987 ft | 370 kts | 269° |
| 2026-04-21 10:13 | 55.98247 | 96.89193 | 35987 ft | 370 kts | 269° |
| 2026-04-21 10:13 | 55.97759 | 96.80054 | 35989 ft | 370 kts | 269° |
| 2026-04-21 10:14 | 55.97264 | 96.70920 | 35989 ft | 369 kts | 269° |
| 2026-04-21 10:14 | 55.96768 | 96.61814 | 35990 ft | 368 kts | 269° |
| 2026-04-21 10:15 | 55.96264 | 96.52695 | 35991 ft | 368 kts | 269° |
| 2026-04-21 10:15 | 55.95755 | 96.43595 | 35992 ft | 368 kts | 269° |
| 2026-04-21 10:16 | 55.95241 | 96.34569 | 35993 ft | 367 kts | 269° |
| 2026-04-21 10:16 | 55.94720 | 96.25498 | 35994 ft | 367 kts | 269° |
| 2026-04-21 10:17 | 55.94193 | 96.16426 | 35995 ft | 367 kts | 269° |
| 2026-04-21 10:17 | 55.93658 | 96.07349 | 35996 ft | 367 kts | 269° |
| 2026-04-21 10:18 | 55.93118 | 95.98329 | 35997 ft | 368 kts | 268° |
| 2026-04-21 10:18 | 55.92556 | 95.89253 | 35998 ft | 367 kts | 268° |
| 2026-04-21 10:19 | 55.91995 | 95.80166 | 35999 ft | 368 kts | 268° |
| 2026-04-21 10:19 | 55.91431 | 95.71102 | 36000 ft | 367 kts | 268° |
| 2026-04-21 10:20 | 55.90861 | 95.62042 | 35997 ft | 367 kts | 268° |
| 2026-04-21 10:20 | 55.90290 | 95.53047 | 36000 ft | 368 kts | 268° |
| 2026-04-21 10:21 | 55.89709 | 95.43994 | 36002 ft | 368 kts | 268° |
| 2026-04-21 10:21 | 55.89121 | 95.34936 | 36003 ft | 368 kts | 268° |
| 2026-04-21 10:22 | 55.88526 | 95.25874 | 36005 ft | 368 kts | 268° |
| 2026-04-21 10:22 | 55.87924 | 95.16818 | 36005 ft | 368 kts | 268° |
| 2026-04-21 10:23 | 55.87315 | 95.07755 | 36007 ft | 368 kts | 268° |
| 2026-04-21 10:23 | 55.86696 | 94.98694 | 36008 ft | 368 kts | 268° |
| 2026-04-21 10:24 | 55.86064 | 94.89703 | 36008 ft | 368 kts | 268° |
| 2026-04-21 10:24 | 55.85431 | 94.80669 | 36010 ft | 368 kts | 268° |
| 2026-04-21 10:25 | 55.84793 | 94.71616 | 36011 ft | 368 kts | 267° |
| 2026-04-21 10:25 | 55.84148 | 94.62579 | 36012 ft | 368 kts | 267° |
| 2026-04-21 10:26 | 55.83503 | 94.53561 | 36012 ft | 368 kts | 267° |
| 2026-04-21 10:26 | 55.82849 | 94.44546 | 36014 ft | 367 kts | 267° |
| 2026-04-21 10:27 | 55.82178 | 94.35484 | 36014 ft | 367 kts | 267° |
| 2026-04-21 10:27 | 55.81504 | 94.26546 | 36015 ft | 367 kts | 266° |
| 2026-04-21 10:28 | 55.80819 | 94.17578 | 36016 ft | 366 kts | 266° |
| 2026-04-21 10:28 | 55.80123 | 94.08606 | 36017 ft | 366 kts | 266° |
| 2026-04-21 10:29 | 55.79420 | 93.99621 | 36018 ft | 366 kts | 266° |
| 2026-04-21 10:29 | 55.78692 | 93.90659 | 36019 ft | 366 kts | 266° |
| 2026-04-21 10:30 | 55.77969 | 93.81682 | 36020 ft | 367 kts | 266° |
| 2026-04-21 10:30 | 55.77243 | 93.72718 | 36021 ft | 367 kts | 266° |
| 2026-04-21 10:31 | 55.76515 | 93.63805 | 36022 ft | 367 kts | 266° |
| 2026-04-21 10:31 | 55.75778 | 93.54850 | 36022 ft | 366 kts | 266° |
| 2026-04-21 10:32 | 55.75027 | 93.45888 | 36023 ft | 367 kts | 266° |
| 2026-04-21 10:32 | 55.74243 | 93.36921 | 36024 ft | 368 kts | 266° |
| 2026-04-21 10:33 | 55.73441 | 93.27949 | 36024 ft | 368 kts | 265° |
| 2026-04-21 10:33 | 55.72628 | 93.18994 | 36025 ft | 368 kts | 265° |
| 2026-04-21 10:34 | 55.71810 | 93.10086 | 36025 ft | 368 kts | 265° |
| 2026-04-21 10:34 | 55.70975 | 93.01115 | 36026 ft | 368 kts | 265° |
| 2026-04-21 10:35 | 55.70118 | 92.92144 | 36026 ft | 369 kts | 265° |
| 2026-04-21 10:35 | 55.69264 | 92.83182 | 36026 ft | 369 kts | 265° |
| 2026-04-21 10:36 | 55.68410 | 92.74223 | 36026 ft | 369 kts | 265° |
| 2026-04-21 10:36 | 55.67550 | 92.65274 | 36026 ft | 369 kts | 265° |
| 2026-04-21 10:37 | 55.66682 | 92.56324 | 36025 ft | 368 kts | 265° |
| 2026-04-21 10:37 | 55.65810 | 92.47369 | 36025 ft | 369 kts | 265° |
| 2026-04-21 10:38 | 55.64933 | 92.38427 | 36025 ft | 369 kts | 265° |
| 2026-04-21 10:38 | 55.64047 | 92.29474 | 36024 ft | 369 kts | 265° |
| 2026-04-21 10:39 | 55.63156 | 92.20542 | 36024 ft | 369 kts | 265° |
| 2026-04-21 10:39 | 55.62257 | 92.11600 | 36023 ft | 369 kts | 264° |
| 2026-04-21 10:40 | 55.61359 | 92.02730 | 36022 ft | 369 kts | 264° |
| 2026-04-21 10:40 | 55.60435 | 91.93805 | 36020 ft | 369 kts | 264° |
| 2026-04-21 10:41 | 55.59505 | 91.84858 | 36020 ft | 370 kts | 264° |
| 2026-04-21 10:41 | 55.58575 | 91.75919 | 36020 ft | 370 kts | 264° |
| 2026-04-21 10:42 | 55.57641 | 91.66975 | 36033 ft | 370 kts | 264° |
| 2026-04-21 10:42 | 55.56699 | 91.58029 | 36037 ft | 370 kts | 264° |
| 2026-04-21 10:43 | 55.55751 | 91.49071 | 36037 ft | 371 kts | 264° |
| 2026-04-21 10:43 | 55.54796 | 91.40121 | 36036 ft | 371 kts | 264° |
| 2026-04-21 10:44 | 55.53834 | 91.31173 | 36033 ft | 371 kts | 264° |
| 2026-04-21 10:44 | 55.52865 | 91.22221 | 36031 ft | 371 kts | 264° |
| 2026-04-21 10:45 | 55.52069 | 91.13237 | 36029 ft | 370 kts | 268° |
| 2026-04-21 10:45 | 55.51616 | 91.04240 | 36026 ft | 369 kts | 269° |
| 2026-04-21 10:46 | 55.51278 | 90.95208 | 36024 ft | 369 kts | 270° |
| 2026-04-21 10:46 | 55.50950 | 90.86187 | 36022 ft | 368 kts | 270° |
| 2026-04-21 10:47 | 55.50644 | 90.77160 | 36020 ft | 368 kts | 270° |
| 2026-04-21 10:47 | 55.50345 | 90.68137 | 36019 ft | 368 kts | 270° |
| 2026-04-21 10:48 | 55.50043 | 90.59105 | 36017 ft | 369 kts | 270° |
| 2026-04-21 10:48 | 55.49739 | 90.50067 | 36016 ft | 369 kts | 270° |
| 2026-04-21 10:49 | 55.49428 | 90.41025 | 36014 ft | 369 kts | 270° |
| 2026-04-21 10:49 | 55.49111 | 90.31979 | 36013 ft | 369 kts | 270° |
| 2026-04-21 10:50 | 55.48842 | 90.24448 | 36011 ft | 369 kts | 270° |
| 2026-04-21 10:50 | 55.48458 | 90.13942 | 36010 ft | 369 kts | 270° |
| 2026-04-21 10:51 | 55.48120 | 90.04897 | 36009 ft | 369 kts | 270° |
| 2026-04-21 10:51 | 55.47769 | 89.95876 | 36007 ft | 369 kts | 269° |
| 2026-04-21 10:52 | 55.47460 | 89.88377 | 36007 ft | 369 kts | 269° |
| 2026-04-21 10:52 | 55.47096 | 89.79330 | 36006 ft | 370 kts | 269° |
| 2026-04-21 10:53 | 55.46729 | 89.70283 | 36005 ft | 370 kts | 269° |
| 2026-04-21 10:53 | 55.46358 | 89.61235 | 36004 ft | 370 kts | 269° |
| 2026-04-21 10:54 | 55.45980 | 89.52212 | 36004 ft | 369 kts | 269° |
| 2026-04-21 10:54 | 55.45598 | 89.43205 | 36003 ft | 370 kts | 269° |
| 2026-04-21 10:55 | 55.45209 | 89.34166 | 36003 ft | 370 kts | 269° |
| 2026-04-21 10:55 | 55.44812 | 89.25124 | 36004 ft | 370 kts | 269° |
| 2026-04-21 10:56 | 55.44410 | 89.16078 | 36005 ft | 370 kts | 269° |
| 2026-04-21 10:56 | 55.43999 | 89.07038 | 36004 ft | 370 kts | 269° |
| 2026-04-21 10:57 | 55.43576 | 88.97997 | 36005 ft | 370 kts | 269° |
| 2026-04-21 10:57 | 55.43130 | 88.88966 | 36004 ft | 370 kts | 269° |
| 2026-04-21 10:58 | 55.42705 | 88.79977 | 36004 ft | 370 kts | 269° |
| 2026-04-21 10:58 | 55.42274 | 88.70933 | 36004 ft | 370 kts | 269° |
| 2026-04-21 10:59 | 55.41839 | 88.61906 | 36003 ft | 370 kts | 269° |
| 2026-04-21 10:59 | 55.41397 | 88.52868 | 36003 ft | 370 kts | 269° |
| 2026-04-21 11:00 | 55.40952 | 88.43890 | 36003 ft | 370 kts | 269° |
| 2026-04-21 11:00 | 55.40498 | 88.34844 | 36003 ft | 371 kts | 268° |
| 2026-04-21 11:01 | 55.40037 | 88.25815 | 36003 ft | 370 kts | 268° |
| 2026-04-21 11:01 | 55.39572 | 88.16788 | 36003 ft | 370 kts | 268° |
| 2026-04-21 11:02 | 55.38859 | 88.03246 | 36003 ft | 370 kts | 268° |
| 2026-04-21 11:02 | 55.38360 | 87.94230 | 36021 ft | 370 kts | 268° |
| 2026-04-21 11:03 | 55.37854 | 87.85211 | 36037 ft | 371 kts | 268° |
| 2026-04-21 11:03 | 55.37348 | 87.76188 | 36044 ft | 371 kts | 268° |
| 2026-04-21 11:04 | 55.36839 | 87.67156 | 36047 ft | 371 kts | 268° |
| 2026-04-21 11:04 | 55.36326 | 87.58123 | 36049 ft | 371 kts | 268° |
| 2026-04-21 11:05 | 55.35812 | 87.49087 | 36050 ft | 372 kts | 268° |
| 2026-04-21 11:05 | 55.35290 | 87.40034 | 36051 ft | 372 kts | 268° |
| 2026-04-21 11:06 | 55.34762 | 87.31001 | 36052 ft | 372 kts | 268° |
| 2026-04-21 11:06 | 55.34230 | 87.22017 | 36053 ft | 371 kts | 268° |
| 2026-04-21 11:07 | 55.33688 | 87.12975 | 36054 ft | 372 kts | 268° |
| 2026-04-21 11:07 | 55.33139 | 87.03931 | 36050 ft | 372 kts | 268° |
| 2026-04-21 11:08 | 55.32568 | 86.94876 | 36049 ft | 372 kts | 267° |
| 2026-04-21 11:08 | 55.31985 | 86.85823 | 36050 ft | 373 kts | 267° |
| 2026-04-21 11:09 | 55.31409 | 86.76818 | 36051 ft | 372 kts | 267° |
| 2026-04-21 11:09 | 55.30829 | 86.67761 | 36052 ft | 372 kts | 267° |
| 2026-04-21 11:10 | 55.30245 | 86.58717 | 36053 ft | 373 kts | 267° |
| 2026-04-21 11:10 | 55.29657 | 86.49682 | 36055 ft | 373 kts | 267° |
| 2026-04-21 11:11 | 55.29065 | 86.40698 | 36055 ft | 373 kts | 267° |
| 2026-04-21 11:11 | 55.28463 | 86.31647 | 36056 ft | 373 kts | 267° |
| 2026-04-21 11:12 | 55.27853 | 86.22615 | 36057 ft | 373 kts | 267° |
| 2026-04-21 11:12 | 55.27277 | 86.13578 | 36057 ft | 373 kts | 268° |
| 2026-04-21 11:13 | 55.26807 | 86.04512 | 36058 ft | 372 kts | 268° |
| 2026-04-21 11:13 | 55.26339 | 85.95524 | 36057 ft | 372 kts | 268° |
| 2026-04-21 11:14 | 55.25872 | 85.86480 | 36058 ft | 372 kts | 269° |
| 2026-04-21 11:14 | 55.25416 | 85.77431 | 36057 ft | 372 kts | 268° |
| 2026-04-21 11:15 | 55.24963 | 85.68368 | 36057 ft | 373 kts | 268° |
| 2026-04-21 11:15 | 55.24507 | 85.59315 | 36056 ft | 373 kts | 268° |
| 2026-04-21 11:16 | 55.24045 | 85.50265 | 36055 ft | 373 kts | 268° |
| 2026-04-21 11:16 | 55.23578 | 85.41218 | 36054 ft | 373 kts | 268° |
| 2026-04-21 11:17 | 55.23102 | 85.32151 | 36053 ft | 374 kts | 268° |
| 2026-04-21 11:17 | 55.22622 | 85.23080 | 36052 ft | 374 kts | 268° |
| 2026-04-21 11:18 | 55.22134 | 85.14039 | 36050 ft | 374 kts | 268° |
| 2026-04-21 11:18 | 55.21637 | 85.04946 | 36048 ft | 374 kts | 268° |
| 2026-04-21 11:19 | 55.21120 | 84.95868 | 36047 ft | 375 kts | 268° |
| 2026-04-21 11:19 | 55.20584 | 84.86774 | 36050 ft | 375 kts | 268° |
| 2026-04-21 11:20 | 55.20059 | 84.77747 | 36052 ft | 375 kts | 268° |
| 2026-04-21 11:20 | 55.19445 | 84.68671 | 36052 ft | 375 kts | 266° |
| 2026-04-21 11:21 | 55.18796 | 84.59593 | 36053 ft | 375 kts | 267° |
| 2026-04-21 11:21 | 55.18233 | 84.50494 | 36053 ft | 376 kts | 267° |
| 2026-04-21 11:22 | 55.17679 | 84.41387 | 36053 ft | 376 kts | 268° |
| 2026-04-21 11:22 | 55.17128 | 84.32269 | 36053 ft | 376 kts | 267° |
| 2026-04-21 11:23 | 55.16577 | 84.23166 | 36053 ft | 376 kts | 267° |
| 2026-04-21 11:23 | 55.16027 | 84.14114 | 36054 ft | 376 kts | 267° |
| 2026-04-21 11:24 | 55.15469 | 84.05013 | 36055 ft | 376 kts | 267° |
| 2026-04-21 11:24 | 55.14893 | 83.95911 | 36054 ft | 376 kts | 267° |
| 2026-04-21 11:25 | 55.14294 | 83.86806 | 36055 ft | 377 kts | 267° |
| 2026-04-21 11:25 | 55.13707 | 83.77686 | 36055 ft | 377 kts | 267° |
| 2026-04-21 11:26 | 55.13120 | 83.68584 | 36055 ft | 377 kts | 267° |
| 2026-04-21 11:26 | 55.12528 | 83.59480 | 36056 ft | 377 kts | 267° |
| 2026-04-21 11:27 | 55.11930 | 83.50380 | 36056 ft | 377 kts | 267° |
| 2026-04-21 11:27 | 55.11325 | 83.41281 | 36054 ft | 377 kts | 267° |
| 2026-04-21 11:28 | 55.10714 | 83.32179 | 36054 ft | 377 kts | 267° |
| 2026-04-21 11:28 | 55.10096 | 83.23086 | 36054 ft | 377 kts | 267° |
| 2026-04-21 11:29 | 55.09475 | 83.14002 | 36055 ft | 377 kts | 266° |
| 2026-04-21 11:29 | 55.08848 | 83.04957 | 36055 ft | 377 kts | 266° |
| 2026-04-21 11:30 | 55.08195 | 82.95858 | 36056 ft | 378 kts | 266° |
| 2026-04-21 11:30 | 55.07576 | 82.86724 | 36058 ft | 378 kts | 269° |
| 2026-04-21 11:31 | 55.07191 | 82.77569 | 36057 ft | 378 kts | 269° |
| 2026-04-21 11:31 | 55.06849 | 82.69975 | 36057 ft | 377 kts | 269° |
| 2026-04-21 11:32 | 55.06437 | 82.60835 | 36058 ft | 378 kts | 269° |
| 2026-04-21 11:32 | 55.06022 | 82.51748 | 36058 ft | 377 kts | 269° |
| 2026-04-21 11:33 | 55.05596 | 82.42602 | 36058 ft | 377 kts | 268° |
| 2026-04-21 11:33 | 55.05165 | 82.33480 | 36058 ft | 377 kts | 269° |
| 2026-04-21 11:34 | 55.04729 | 82.24360 | 36058 ft | 377 kts | 268° |
| 2026-04-21 11:34 | 55.04286 | 82.15236 | 36058 ft | 378 kts | 268° |
| 2026-04-21 11:35 | 55.03838 | 82.06143 | 36058 ft | 378 kts | 268° |
| 2026-04-21 11:35 | 55.03373 | 81.97017 | 36058 ft | 378 kts | 268° |
| 2026-04-21 11:36 | 55.02869 | 81.87897 | 36057 ft | 377 kts | 268° |
| 2026-04-21 11:36 | 55.02392 | 81.78768 | 36057 ft | 377 kts | 268° |
| 2026-04-21 11:37 | 55.01909 | 81.69639 | 36056 ft | 378 kts | 268° |
| 2026-04-21 11:37 | 55.01423 | 81.60546 | 36053 ft | 378 kts | 268° |
| 2026-04-21 11:38 | 55.00929 | 81.51411 | 36050 ft | 378 kts | 268° |
| 2026-04-21 11:38 | 55.00430 | 81.42282 | 36049 ft | 378 kts | 268° |
| 2026-04-21 11:39 | 54.99924 | 81.33154 | 36047 ft | 378 kts | 268° |
| 2026-04-21 11:39 | 54.99417 | 81.24036 | 36046 ft | 378 kts | 268° |
| 2026-04-21 11:40 | 54.98902 | 81.14971 | 36044 ft | 378 kts | 268° |
| 2026-04-21 11:40 | 54.98375 | 81.05848 | 36043 ft | 378 kts | 267° |
| 2026-04-21 11:41 | 54.97807 | 80.96719 | 36042 ft | 379 kts | 267° |
| 2026-04-21 11:41 | 54.97254 | 80.87585 | 36041 ft | 379 kts | 267° |
| 2026-04-21 11:42 | 54.96699 | 80.78441 | 36039 ft | 379 kts | 267° |
| 2026-04-21 11:42 | 54.96147 | 80.69377 | 36038 ft | 379 kts | 267° |
| 2026-04-21 11:43 | 54.95587 | 80.60241 | 36036 ft | 379 kts | 267° |
| 2026-04-21 11:43 | 54.95020 | 80.51114 | 36030 ft | 379 kts | 266° |
| 2026-04-21 11:44 | 54.94448 | 80.42010 | 36022 ft | 378 kts | 266° |
| 2026-04-21 11:44 | 54.93872 | 80.32959 | 36018 ft | 379 kts | 266° |
| 2026-04-21 11:45 | 54.93285 | 80.23837 | 36015 ft | 379 kts | 266° |
| 2026-04-21 11:45 | 54.92692 | 80.14718 | 36012 ft | 380 kts | 266° |
| 2026-04-21 11:46 | 54.92091 | 80.05593 | 36010 ft | 380 kts | 266° |
| 2026-04-21 11:46 | 54.91471 | 79.96459 | 36007 ft | 380 kts | 265° |
| 2026-04-21 11:47 | 54.90819 | 79.87322 | 36005 ft | 381 kts | 266° |
| 2026-04-21 11:47 | 54.90185 | 79.78179 | 36002 ft | 381 kts | 266° |
| 2026-04-21 11:48 | 54.89559 | 79.69107 | 36000 ft | 381 kts | 266° |
| 2026-04-21 11:48 | 54.88922 | 79.59975 | 35997 ft | 381 kts | 265° |
| 2026-04-21 11:49 | 54.88279 | 79.50844 | 35995 ft | 381 kts | 265° |
| 2026-04-21 11:49 | 54.87628 | 79.41706 | 35993 ft | 381 kts | 265° |
| 2026-04-21 11:50 | 54.86970 | 79.32571 | 35990 ft | 381 kts | 265° |
| 2026-04-21 11:50 | 54.86304 | 79.23442 | 35987 ft | 381 kts | 265° |
| 2026-04-21 11:51 | 54.85635 | 79.14330 | 35985 ft | 381 kts | 265° |
| 2026-04-21 11:51 | 54.84957 | 79.05215 | 35982 ft | 381 kts | 265° |
| 2026-04-21 11:52 | 54.84256 | 78.96082 | 35980 ft | 382 kts | 264° |
| 2026-04-21 11:52 | 54.83527 | 78.86972 | 35977 ft | 381 kts | 265° |
| 2026-04-21 11:53 | 54.82821 | 78.77844 | 35975 ft | 381 kts | 264° |
| 2026-04-21 11:53 | 54.82101 | 78.68730 | 35973 ft | 382 kts | 264° |
| 2026-04-21 11:54 | 54.81364 | 78.59597 | 35970 ft | 382 kts | 264° |
| 2026-04-21 11:54 | 54.80636 | 78.50475 | 35968 ft | 382 kts | 264° |
| 2026-04-21 11:55 | 54.79908 | 78.41345 | 35965 ft | 382 kts | 264° |
| 2026-04-21 11:55 | 54.79178 | 78.32216 | 35963 ft | 383 kts | 264° |
| 2026-04-21 11:56 | 54.78440 | 78.23090 | 35961 ft | 383 kts | 264° |
| 2026-04-21 11:56 | 54.77691 | 78.13945 | 35959 ft | 383 kts | 264° |
| 2026-04-21 11:57 | 54.76936 | 78.04784 | 35956 ft | 384 kts | 264° |
| 2026-04-21 11:57 | 54.76155 | 77.95638 | 35954 ft | 384 kts | 263° |
| 2026-04-21 11:58 | 54.75350 | 77.86493 | 35952 ft | 384 kts | 263° |
| 2026-04-21 11:58 | 54.74570 | 77.77384 | 35950 ft | 384 kts | 263° |
| 2026-04-21 11:59 | 54.73782 | 77.68237 | 35948 ft | 383 kts | 263° |
| 2026-04-21 11:59 | 54.72991 | 77.59106 | 35946 ft | 383 kts | 263° |
| 2026-04-21 12:00 | 54.72192 | 77.49983 | 35944 ft | 384 kts | 263° |
| 2026-04-21 12:00 | 54.71391 | 77.40855 | 35942 ft | 384 kts | 263° |
| 2026-04-21 12:01 | 54.70581 | 77.31738 | 35940 ft | 383 kts | 263° |
| 2026-04-21 12:01 | 54.69766 | 77.22664 | 35938 ft | 383 kts | 263° |
| 2026-04-21 12:02 | 54.68530 | 77.09009 | 35935 ft | 382 kts | 263° |
| 2026-04-21 12:03 | 54.67697 | 76.99923 | 35930 ft | 382 kts | 263° |
| 2026-04-21 12:03 | 54.66814 | 76.90876 | 35925 ft | 383 kts | 262° |
| 2026-04-21 12:04 | 54.65955 | 76.81768 | 35923 ft | 383 kts | 262° |
| 2026-04-21 12:04 | 54.65097 | 76.72747 | 35920 ft | 382 kts | 262° |
| 2026-04-21 12:05 | 54.64232 | 76.63680 | 35918 ft | 382 kts | 262° |
| 2026-04-21 12:05 | 54.63363 | 76.54612 | 35917 ft | 382 kts | 262° |
| 2026-04-21 12:06 | 54.62488 | 76.45556 | 35915 ft | 382 kts | 262° |
| 2026-04-21 12:06 | 54.61605 | 76.36496 | 35914 ft | 382 kts | 262° |
| 2026-04-21 12:07 | 54.60717 | 76.27446 | 35911 ft | 382 kts | 262° |
| 2026-04-21 12:07 | 54.59830 | 76.18459 | 35908 ft | 383 kts | 262° |
| 2026-04-21 12:08 | 54.58932 | 76.09408 | 35906 ft | 383 kts | 262° |
| 2026-04-21 12:08 | 54.58024 | 76.00353 | 35905 ft | 383 kts | 261° |
| 2026-04-21 12:09 | 54.57066 | 75.91316 | 35904 ft | 383 kts | 261° |
| 2026-04-21 12:09 | 54.56132 | 75.82283 | 35903 ft | 383 kts | 261° |
| 2026-04-21 12:10 | 54.55194 | 75.73253 | 35902 ft | 383 kts | 261° |
| 2026-04-21 12:10 | 54.54252 | 75.64206 | 35899 ft | 384 kts | 261° |
| 2026-04-21 12:11 | 54.53315 | 75.55218 | 35898 ft | 384 kts | 261° |
| 2026-04-21 12:11 | 54.52361 | 75.46184 | 35897 ft | 383 kts | 259° |
| 2026-04-21 12:12 | 54.51406 | 75.37132 | 35896 ft | 384 kts | 260° |
| 2026-04-21 12:12 | 54.50443 | 75.28091 | 35895 ft | 384 kts | 259° |
| 2026-04-21 12:13 | 54.49639 | 75.20575 | 35894 ft | 384 kts | 259° |
| 2026-04-21 12:13 | 54.48664 | 75.11519 | 35893 ft | 385 kts | 259° |
| 2026-04-21 12:14 | 54.47679 | 75.02470 | 35892 ft | 385 kts | 259° |
| 2026-04-21 12:14 | 54.46655 | 74.93409 | 35892 ft | 385 kts | 259° |
| 2026-04-21 12:15 | 54.45638 | 74.84422 | 35891 ft | 386 kts | 259° |
| 2026-04-21 12:15 | 54.44616 | 74.75324 | 35890 ft | 386 kts | 259° |
| 2026-04-21 12:16 | 54.43596 | 74.66253 | 35890 ft | 387 kts | 259° |
| 2026-04-21 12:16 | 54.42569 | 74.57171 | 35889 ft | 388 kts | 259° |
| 2026-04-21 12:17 | 54.41533 | 74.48078 | 35888 ft | 388 kts | 258° |
| 2026-04-21 12:17 | 54.40493 | 74.38976 | 35888 ft | 389 kts | 258° |
| 2026-04-21 12:18 | 54.39447 | 74.29873 | 35888 ft | 389 kts | 258° |
| 2026-04-21 12:18 | 54.38395 | 74.20796 | 35887 ft | 390 kts | 258° |
| 2026-04-21 12:19 | 54.37330 | 74.11661 | 35886 ft | 390 kts | 258° |
| 2026-04-21 12:19 | 54.36256 | 74.02524 | 35886 ft | 390 kts | 258° |
| 2026-04-21 12:20 | 54.35148 | 73.93471 | 35886 ft | 391 kts | 257° |
| 2026-04-21 12:20 | 54.34035 | 73.84350 | 35885 ft | 391 kts | 258° |
| 2026-04-21 12:21 | 54.32926 | 73.75207 | 35885 ft | 391 kts | 257° |
| 2026-04-21 12:21 | 54.31819 | 73.66082 | 35885 ft | 391 kts | 257° |
| 2026-04-21 12:22 | 54.30705 | 73.56955 | 35885 ft | 391 kts | 257° |
| 2026-04-21 12:22 | 54.29588 | 73.47839 | 35884 ft | 391 kts | 257° |
| 2026-04-21 12:23 | 54.28466 | 73.38720 | 35884 ft | 391 kts | 257° |
| 2026-04-21 12:23 | 54.27336 | 73.29609 | 35884 ft | 391 kts | 257° |
| 2026-04-21 12:24 | 54.26199 | 73.20530 | 35878 ft | 391 kts | 257° |
| 2026-04-21 12:24 | 54.25053 | 73.11414 | 35875 ft | 391 kts | 257° |
| 2026-04-21 12:25 | 54.23901 | 73.02319 | 35874 ft | 391 kts | 257° |
| 2026-04-21 12:25 | 54.22704 | 72.93222 | 35873 ft | 392 kts | 256° |
| 2026-04-21 12:26 | 54.21507 | 72.84118 | 35871 ft | 392 kts | 257° |
| 2026-04-21 12:26 | 54.20331 | 72.75056 | 35870 ft | 393 kts | 256° |
| 2026-04-21 12:27 | 54.19144 | 72.65921 | 35866 ft | 394 kts | 257° |
| 2026-04-21 12:27 | 54.17945 | 72.56772 | 35860 ft | 395 kts | 256° |
| 2026-04-21 12:28 | 54.16672 | 72.47650 | 35860 ft | 395 kts | 252° |
| 2026-04-21 12:28 | 54.14614 | 72.39027 | 35854 ft | 396 kts | 244° |
| 2026-04-21 12:29 | 54.11983 | 72.30757 | 35851 ft | 396 kts | 240° |
| 2026-04-21 12:29 | 54.09146 | 72.22721 | 35848 ft | 396 kts | 239° |
| 2026-04-21 12:30 | 54.06244 | 72.14720 | 35845 ft | 397 kts | 239° |
| 2026-04-21 12:30 | 54.03314 | 72.06755 | 35843 ft | 397 kts | 239° |
| 2026-04-21 12:31 | 54.00362 | 71.98796 | 35840 ft | 397 kts | 238° |
| 2026-04-21 12:31 | 53.97387 | 71.90955 | 35837 ft | 397 kts | 238° |
| 2026-04-21 12:32 | 53.94416 | 71.83046 | 35835 ft | 397 kts | 238° |
| 2026-04-21 12:32 | 53.91439 | 71.75144 | 35831 ft | 397 kts | 238° |
| 2026-04-21 12:33 | 53.88455 | 71.67242 | 35829 ft | 398 kts | 238° |
| 2026-04-21 12:33 | 53.85466 | 71.59336 | 35826 ft | 398 kts | 238° |
| 2026-04-21 12:34 | 53.82469 | 71.51435 | 35823 ft | 399 kts | 238° |
| 2026-04-21 12:34 | 53.79462 | 71.43534 | 35821 ft | 399 kts | 238° |
| 2026-04-21 12:35 | 53.76451 | 71.35639 | 35819 ft | 399 kts | 238° |
| 2026-04-21 12:35 | 53.73447 | 71.27800 | 35817 ft | 400 kts | 238° |
| 2026-04-21 12:36 | 53.70416 | 71.19914 | 35816 ft | 400 kts | 238° |
| 2026-04-21 12:36 | 53.67380 | 71.12015 | 35814 ft | 400 kts | 238° |
| 2026-04-21 12:37 | 53.64336 | 71.04149 | 35812 ft | 401 kts | 238° |
| 2026-04-21 12:37 | 53.61267 | 70.96296 | 35810 ft | 401 kts | 237° |
| 2026-04-21 12:38 | 53.58177 | 70.88471 | 35808 ft | 401 kts | 237° |
| 2026-04-21 12:38 | 53.55108 | 70.80622 | 35806 ft | 402 kts | 237° |
| 2026-04-21 12:39 | 53.52029 | 70.72778 | 35805 ft | 402 kts | 237° |
| 2026-04-21 12:39 | 53.48962 | 70.64974 | 35803 ft | 402 kts | 237° |
| 2026-04-21 12:40 | 53.45874 | 70.57135 | 35802 ft | 402 kts | 237° |
| 2026-04-21 12:40 | 53.42780 | 70.49305 | 35801 ft | 402 kts | 237° |
| 2026-04-21 12:41 | 53.39680 | 70.41484 | 35799 ft | 403 kts | 237° |
| 2026-04-21 12:41 | 53.36579 | 70.33670 | 35797 ft | 403 kts | 237° |
| 2026-04-21 12:42 | 53.33483 | 70.25912 | 35796 ft | 403 kts | 237° |
| 2026-04-21 12:42 | 53.30363 | 70.18121 | 35795 ft | 402 kts | 237° |
| 2026-04-21 12:43 | 53.27243 | 70.10332 | 35795 ft | 402 kts | 237° |
| 2026-04-21 12:43 | 53.24131 | 70.02599 | 35795 ft | 402 kts | 237° |
| 2026-04-21 12:44 | 53.20972 | 69.94871 | 35794 ft | 403 kts | 236° |
| 2026-04-21 12:44 | 53.17828 | 69.87184 | 35794 ft | 403 kts | 237° |
| 2026-04-21 12:45 | 53.14671 | 69.79438 | 35793 ft | 404 kts | 236° |
| 2026-04-21 12:45 | 53.11507 | 69.71688 | 35793 ft | 405 kts | 236° |
| 2026-04-21 12:46 | 53.08334 | 69.63929 | 35793 ft | 405 kts | 237° |
| 2026-04-21 12:46 | 53.05180 | 69.56243 | 35793 ft | 405 kts | 236° |
| 2026-04-21 12:47 | 53.01999 | 69.48510 | 35793 ft | 405 kts | 236° |
| 2026-04-21 12:47 | 52.98814 | 69.40786 | 35792 ft | 406 kts | 236° |
| 2026-04-21 12:48 | 52.95621 | 69.33059 | 35793 ft | 406 kts | 236° |
| 2026-04-21 12:48 | 52.92421 | 69.25346 | 35793 ft | 406 kts | 236° |
| 2026-04-21 12:49 | 52.89208 | 69.17637 | 35793 ft | 406 kts | 236° |
| 2026-04-21 12:49 | 52.85999 | 69.09942 | 35793 ft | 406 kts | 236° |
| 2026-04-21 12:50 | 52.82786 | 69.02265 | 35794 ft | 406 kts | 236° |
| 2026-04-21 12:50 | 52.79535 | 68.94619 | 35794 ft | 406 kts | 236° |
| 2026-04-21 12:51 | 52.76289 | 68.86984 | 35794 ft | 406 kts | 236° |
| 2026-04-21 12:51 | 52.73060 | 68.79382 | 35795 ft | 407 kts | 236° |
| 2026-04-21 12:52 | 52.69811 | 68.71730 | 35795 ft | 407 kts | 236° |
| 2026-04-21 12:52 | 52.66560 | 68.64074 | 35795 ft | 407 kts | 236° |
| 2026-04-21 12:53 | 52.63299 | 68.56437 | 35795 ft | 408 kts | 236° |
| 2026-04-21 12:53 | 52.60030 | 68.48804 | 35795 ft | 408 kts | 236° |
| 2026-04-21 12:54 | 52.56787 | 68.41223 | 35795 ft | 407 kts | 236° |
| 2026-04-21 12:54 | 52.53512 | 68.33620 | 35795 ft | 407 kts | 236° |
| 2026-04-21 12:55 | 52.50231 | 68.26024 | 35795 ft | 407 kts | 236° |
| 2026-04-21 12:55 | 52.46948 | 68.18431 | 35796 ft | 408 kts | 236° |
| 2026-04-21 12:56 | 52.43651 | 68.10836 | 35795 ft | 409 kts | 235° |
| 2026-04-21 12:56 | 52.40347 | 68.03249 | 35795 ft | 409 kts | 235° |
| 2026-04-21 12:57 | 52.37042 | 67.95737 | 35795 ft | 409 kts | 235° |
| 2026-04-21 12:57 | 52.33704 | 67.88207 | 35795 ft | 409 kts | 235° |
| 2026-04-21 12:58 | 52.30378 | 67.80673 | 35794 ft | 409 kts | 235° |
| 2026-04-21 12:58 | 52.27617 | 67.74402 | 35794 ft | 409 kts | 235° |
| 2026-04-21 12:59 | 52.24283 | 67.66874 | 35793 ft | 409 kts | 235° |
| 2026-04-21 12:59 | 52.20969 | 67.59315 | 35792 ft | 409 kts | 236° |
| 2026-04-21 13:00 | 52.17712 | 67.51720 | 35791 ft | 408 kts | 236° |
| 2026-04-21 13:00 | 52.14467 | 67.44135 | 35782 ft | 408 kts | 236° |
| 2026-04-21 13:01 | 52.11225 | 67.36554 | 35789 ft | 407 kts | 236° |
| 2026-04-21 13:01 | 52.07992 | 67.28989 | 35789 ft | 406 kts | 236° |
| 2026-04-21 13:02 | 52.04764 | 67.21450 | 35788 ft | 406 kts | 236° |
| 2026-04-21 13:02 | 51.99938 | 67.10230 | 35780 ft | 406 kts | 236° |
| 2026-04-21 13:03 | 51.96705 | 67.02715 | 35774 ft | 406 kts | 236° |
| 2026-04-21 13:03 | 51.93432 | 66.95249 | 35770 ft | 406 kts | 236° |
| 2026-04-21 13:04 | 51.90160 | 66.87785 | 35769 ft | 406 kts | 236° |
| 2026-04-21 13:04 | 51.86898 | 66.80315 | 35768 ft | 405 kts | 236° |
| 2026-04-21 13:05 | 51.83646 | 66.72870 | 35767 ft | 405 kts | 236° |
| 2026-04-21 13:05 | 51.80391 | 66.65437 | 35766 ft | 404 kts | 236° |
| 2026-04-21 13:06 | 51.77136 | 66.58022 | 35765 ft | 404 kts | 236° |
| 2026-04-21 13:06 | 51.73880 | 66.50626 | 35765 ft | 404 kts | 236° |
| 2026-04-21 13:07 | 51.70624 | 66.43245 | 35764 ft | 403 kts | 236° |
| 2026-04-21 13:07 | 51.67391 | 66.35933 | 35763 ft | 403 kts | 236° |
| 2026-04-21 13:08 | 51.64123 | 66.28580 | 35763 ft | 403 kts | 236° |
| 2026-04-21 13:08 | 51.60857 | 66.21242 | 35762 ft | 403 kts | 236° |
| 2026-04-21 13:09 | 51.57590 | 66.13908 | 35762 ft | 403 kts | 236° |
| 2026-04-21 13:09 | 51.54327 | 66.06627 | 35761 ft | 403 kts | 236° |
| 2026-04-21 13:10 | 51.51039 | 65.99309 | 35761 ft | 403 kts | 235° |
| 2026-04-21 13:10 | 51.47717 | 65.92049 | 35761 ft | 402 kts | 235° |
| 2026-04-21 13:11 | 51.44438 | 65.84816 | 35760 ft | 401 kts | 235° |
| 2026-04-21 13:11 | 51.41155 | 65.77587 | 35755 ft | 401 kts | 235° |
| 2026-04-21 13:12 | 51.37861 | 65.70339 | 35752 ft | 401 kts | 235° |
| 2026-04-21 13:12 | 51.34578 | 65.63129 | 35751 ft | 401 kts | 235° |
| 2026-04-21 13:13 | 51.31294 | 65.55937 | 35751 ft | 400 kts | 235° |
| 2026-04-21 13:13 | 51.28023 | 65.48793 | 35757 ft | 400 kts | 235° |
| 2026-04-21 13:14 | 51.24736 | 65.41632 | 35759 ft | 399 kts | 235° |
| 2026-04-21 13:14 | 51.21441 | 65.34472 | 35761 ft | 399 kts | 235° |
| 2026-04-21 13:15 | 51.18164 | 65.27369 | 35762 ft | 399 kts | 235° |
| 2026-04-21 13:15 | 51.14868 | 65.20250 | 35761 ft | 399 kts | 235° |
| 2026-04-21 13:16 | 51.11573 | 65.13145 | 35762 ft | 398 kts | 235° |
| 2026-04-21 13:16 | 51.08275 | 65.06058 | 35762 ft | 398 kts | 235° |
| 2026-04-21 13:17 | 51.04973 | 64.98991 | 35763 ft | 398 kts | 234° |
| 2026-04-21 13:17 | 51.01638 | 64.91980 | 35763 ft | 397 kts | 234° |
| 2026-04-21 13:18 | 50.98347 | 64.84994 | 35763 ft | 397 kts | 234° |
| 2026-04-21 13:18 | 50.95032 | 64.77967 | 35764 ft | 397 kts | 234° |
| 2026-04-21 13:19 | 50.91722 | 64.70960 | 35764 ft | 397 kts | 234° |
| 2026-04-21 13:19 | 50.88434 | 64.64007 | 35765 ft | 396 kts | 234° |
| 2026-04-21 13:20 | 50.85120 | 64.57021 | 35765 ft | 396 kts | 234° |
| 2026-04-21 13:20 | 50.81802 | 64.50065 | 35766 ft | 396 kts | 234° |
| 2026-04-21 13:21 | 50.78508 | 64.43155 | 35766 ft | 396 kts | 234° |
| 2026-04-21 13:21 | 50.75189 | 64.36210 | 35758 ft | 396 kts | 234° |
| 2026-04-21 13:22 | 50.71861 | 64.29270 | 35755 ft | 396 kts | 234° |
| 2026-04-21 13:22 | 50.68537 | 64.22343 | 35755 ft | 395 kts | 234° |
| 2026-04-21 13:23 | 50.65216 | 64.15439 | 35755 ft | 395 kts | 234° |
| 2026-04-21 13:23 | 50.61887 | 64.08547 | 35755 ft | 395 kts | 234° |
| 2026-04-21 13:24 | 50.58577 | 64.01704 | 35756 ft | 395 kts | 234° |
| 2026-04-21 13:24 | 50.55219 | 63.94857 | 35757 ft | 394 kts | 233° |
| 2026-04-21 13:25 | 50.51873 | 63.88036 | 35757 ft | 393 kts | 234° |
| 2026-04-21 13:25 | 50.48536 | 63.81220 | 35758 ft | 393 kts | 234° |
| 2026-04-21 13:26 | 50.45202 | 63.74403 | 35757 ft | 393 kts | 234° |
| 2026-04-21 13:26 | 50.41864 | 63.67603 | 35750 ft | 393 kts | 234° |
| 2026-04-21 13:27 | 50.38526 | 63.60816 | 35748 ft | 393 kts | 234° |
| 2026-04-21 13:27 | 50.35188 | 63.54036 | 35747 ft | 393 kts | 234° |
| 2026-04-21 13:28 | 50.31862 | 63.47306 | 35760 ft | 393 kts | 234° |
| 2026-04-21 13:28 | 50.28513 | 63.40545 | 35767 ft | 392 kts | 234° |
| 2026-04-21 13:29 | 50.25164 | 63.33794 | 35770 ft | 392 kts | 233° |
| 2026-04-21 13:29 | 50.21812 | 63.27069 | 35771 ft | 392 kts | 233° |
| 2026-04-21 13:30 | 50.18483 | 63.20399 | 35773 ft | 392 kts | 233° |
| 2026-04-21 13:30 | 50.15132 | 63.13694 | 35774 ft | 391 kts | 233° |
| 2026-04-21 13:31 | 50.11786 | 63.07028 | 35775 ft | 391 kts | 233° |
| 2026-04-21 13:31 | 50.08430 | 63.00361 | 35778 ft | 390 kts | 233° |
| 2026-04-21 13:32 | 50.04844 | 62.94051 | 35777 ft | 391 kts | 228° |
| 2026-04-21 13:32 | 50.00978 | 62.88104 | 35777 ft | 391 kts | 226° |
| 2026-04-21 13:33 | 49.97012 | 62.82317 | 35778 ft | 392 kts | 226° |
| 2026-04-21 13:33 | 49.93013 | 62.76539 | 35779 ft | 392 kts | 225° |
| 2026-04-21 13:34 | 49.88999 | 62.70806 | 35780 ft | 392 kts | 225° |
| 2026-04-21 13:34 | 49.84984 | 62.65083 | 35782 ft | 392 kts | 225° |
| 2026-04-21 13:35 | 49.80981 | 62.59414 | 35782 ft | 391 kts | 225° |
| 2026-04-21 13:35 | 49.77050 | 62.53592 | 35785 ft | 391 kts | 228° |